createdAt,value
2023-03-11T00:01:01.515Z,98216.60
2023-03-11T00:03:30.728Z,98206.80
2023-03-11T00:06:02.389Z,98210.80
2023-03-11T00:08:31.673Z,98211.00
2023-03-11T00:11:01.775Z,98217.40
2023-03-11T00:13:30.831Z,98217.20
2023-03-11T00:16:01.941Z,98216.00
2023-03-11T00:18:31.905Z,98216.00
2023-03-11T00:21:01.793Z,98220.20
2023-03-11T00:23:31.025Z,98220.80
2023-03-11T00:26:01.837Z,98224.60
2023-03-11T00:28:32.892Z,98223.60
2023-03-11T00:31:03.872Z,98224.60
2023-03-11T00:33:32.674Z,98232.20
2023-03-11T00:36:01.593Z,98232.60
2023-03-11T00:38:30.596Z,98231.40
2023-03-11T00:41:02.036Z,98228.00
2023-03-11T00:43:33.469Z,98233.40
2023-03-11T00:46:02.296Z,98239.80
2023-03-11T00:48:31.451Z,98238.40
2023-03-11T00:51:00.240Z,98241.80
2023-03-11T00:53:29.036Z,98240.40
2023-03-11T00:55:58.048Z,98242.40
2023-03-11T00:58:29.388Z,98239.20
2023-03-11T01:00:59.025Z,98244.80
2023-03-11T01:03:27.865Z,98241.60
2023-03-11T01:05:56.461Z,98246.80
2023-03-11T01:08:27.598Z,98251.40
2023-03-11T01:10:56.387Z,98250.80
2023-03-11T01:13:26.772Z,98250.00
2023-03-11T01:15:57.373Z,98256.40
2023-03-11T01:18:26.443Z,98259.00
2023-03-11T01:20:55.614Z,98263.80
2023-03-11T01:23:24.341Z,98264.00
2023-03-11T01:25:53.117Z,98270.20
2023-03-11T01:28:21.701Z,98278.40
2023-03-11T01:30:50.628Z,98278.80
2023-03-11T01:33:20.395Z,98285.80
2023-03-11T01:35:49.669Z,98284.20
2023-03-11T01:38:18.918Z,98289.80
2023-03-11T01:40:52.267Z,98293.00
2023-03-11T01:43:46.181Z,98303.40
2023-03-11T01:46:25.080Z,98311.20
2023-03-11T01:49:02.699Z,98320.40
2023-03-11T01:51:41.729Z,98325.60
2023-03-11T01:54:16.928Z,98330.20
2023-03-11T01:56:47.067Z,98332.60
2023-03-11T01:59:21.499Z,98343.00
2023-03-11T02:02:34.892Z,98349.40
2023-03-11T02:05:05.098Z,98369.00
2023-03-11T02:07:34.061Z,98379.00
2023-03-11T02:10:03.546Z,98384.80
2023-03-11T02:12:35.598Z,98399.40
2023-03-11T02:15:07.077Z,98407.20
2023-03-11T02:17:40.046Z,98418.20
2023-03-11T02:20:12.814Z,98418.60
2023-03-11T02:22:43.860Z,98425.20
2023-03-11T02:26:03.180Z,98433.20
2023-03-11T02:28:35.405Z,98447.00
2023-03-11T02:31:04.388Z,98453.60
2023-03-11T02:33:36.688Z,98460.40
2023-03-11T02:36:06.304Z,98467.20
2023-03-11T02:38:34.911Z,98473.40
2023-03-11T02:41:03.698Z,98475.60
2023-03-11T02:43:42.121Z,98485.20
2023-03-11T02:46:12.616Z,98494.40
2023-03-11T02:48:42.295Z,98502.60
2023-03-11T02:51:10.831Z,98513.40
2023-03-11T02:53:51.095Z,98522.20
2023-03-11T02:56:20.294Z,98526.80
2023-03-11T02:58:49.281Z,98539.60
2023-03-11T03:01:17.927Z,98549.20
2023-03-11T03:03:47.003Z,98557.40
2023-03-11T03:06:16.161Z,98571.40
2023-03-11T03:08:45.214Z,98572.40
2023-03-11T03:11:13.940Z,98577.20
2023-03-11T03:13:42.633Z,98588.40
2023-03-11T03:16:11.287Z,98601.00
2023-03-11T03:18:40.103Z,98612.00
2023-03-11T03:21:10.129Z,98617.60
2023-03-11T03:23:39.218Z,98626.20
2023-03-11T03:26:07.906Z,98631.20
2023-03-11T03:28:38.439Z,98648.40
2023-03-11T03:31:10.307Z,98652.80
2023-03-11T03:33:39.836Z,98659.80
2023-03-11T03:36:13.385Z,98670.20
2023-03-11T03:38:48.038Z,98679.40
2023-03-11T03:41:16.924Z,98688.00
2023-03-11T03:43:46.020Z,98701.40
2023-03-11T03:46:14.840Z,98707.40
2023-03-11T03:48:46.773Z,98720.00
2023-03-11T03:51:16.486Z,98727.60
2023-03-11T03:54:08.008Z,98736.60
2023-03-11T03:56:37.106Z,98736.00
2023-03-11T03:59:06.407Z,98740.00
2023-03-11T04:01:41.545Z,98750.60
2023-03-11T04:04:10.540Z,98758.20
2023-03-11T04:06:39.329Z,98767.80
2023-03-11T04:09:12.212Z,98782.20
2023-03-11T04:11:40.697Z,98787.00
2023-03-11T04:14:09.904Z,98800.60
2023-03-11T04:16:42.702Z,98810.60
2023-03-11T04:19:13.315Z,98819.00
2023-03-11T04:21:42.204Z,98830.60
2023-03-11T04:24:10.996Z,98839.40
2023-03-11T04:26:40.299Z,98856.40
2023-03-11T04:29:12.026Z,98858.60
2023-03-11T04:31:44.432Z,98867.60
2023-03-11T04:34:13.111Z,98875.20
2023-03-11T04:36:42.313Z,98880.40
2023-03-11T04:39:12.167Z,98894.40
2023-03-11T04:41:44.189Z,98906.20
2023-03-11T04:44:16.087Z,98910.00
2023-03-11T04:46:45.045Z,98922.00
2023-03-11T04:49:14.033Z,98931.40
2023-03-11T04:51:43.655Z,98944.00
2023-03-11T04:54:12.644Z,98947.80
2023-03-11T04:56:41.662Z,98954.60
2023-03-11T04:59:10.524Z,98971.40
2023-03-11T05:01:39.541Z,98971.60
2023-03-11T05:04:09.982Z,98983.20
2023-03-11T05:06:39.143Z,98989.80
2023-03-11T05:09:07.728Z,99004.00
2023-03-11T05:11:38.259Z,99018.00
2023-03-11T05:14:06.944Z,99027.60
2023-03-11T05:16:36.351Z,99034.40
2023-03-11T05:19:24.696Z,99049.60
2023-03-11T05:21:54.508Z,99062.80
2023-03-11T05:24:23.719Z,99071.00
2023-03-11T05:26:52.904Z,99081.20
2023-03-11T05:29:22.272Z,99090.00
2023-03-11T05:31:51.608Z,99101.20
2023-03-11T05:34:20.581Z,99108.00
2023-03-11T05:36:49.393Z,99112.60
2023-03-11T05:39:18.609Z,99116.60
2023-03-11T05:41:47.798Z,99127.80
2023-03-11T05:44:16.790Z,99138.20
2023-03-11T05:46:45.399Z,99142.80
2023-03-11T05:49:14.275Z,99154.20
2023-03-11T05:51:43.166Z,99150.60
2023-03-11T05:54:15.410Z,99166.20
2023-03-11T05:56:48.004Z,99167.40
2023-03-11T05:59:18.439Z,99176.80
2023-03-11T06:01:49.578Z,99183.60
2023-03-11T06:04:18.652Z,99195.00
2023-03-11T06:06:47.563Z,99201.80
2023-03-11T06:09:18.095Z,99211.60
2023-03-11T06:11:46.778Z,99221.80
2023-03-11T06:14:16.160Z,99235.80
2023-03-11T06:16:45.697Z,99244.40
2023-03-11T06:19:14.686Z,99258.60
2023-03-11T06:21:47.054Z,99263.80
2023-03-11T06:24:16.154Z,99275.60
2023-03-11T06:26:45.350Z,99280.40
2023-03-11T06:29:15.567Z,99288.00
2023-03-11T06:31:44.650Z,99302.80
2023-03-11T06:34:14.175Z,99306.20
2023-03-11T06:36:42.963Z,99318.20
2023-03-11T06:39:15.628Z,99324.00
2023-03-11T06:41:44.547Z,99331.60
2023-03-11T06:44:13.884Z,99334.80
2023-03-11T06:46:42.734Z,99338.80
2023-03-11T06:49:11.426Z,99349.60
2023-03-11T06:51:41.843Z,99356.00
2023-03-11T06:54:11.578Z,99373.20
2023-03-11T06:56:40.788Z,99382.80
2023-03-11T06:59:11.182Z,99392.00
2023-03-11T07:01:40.693Z,99394.00
2023-03-11T07:04:11.273Z,99407.80
2023-03-11T07:06:42.773Z,99418.00
2023-03-11T07:09:16.683Z,99429.80
2023-03-11T07:11:46.392Z,99436.40
2023-03-11T07:14:19.483Z,99435.20
2023-03-11T07:16:50.583Z,99441.80
2023-03-11T07:19:27.960Z,99444.40
2023-03-11T07:21:56.612Z,99455.60
2023-03-11T07:24:25.739Z,99464.60
2023-03-11T07:26:54.394Z,99472.40
2023-03-11T07:29:22.970Z,99480.80
2023-03-11T07:31:51.616Z,99481.40
2023-03-11T07:34:20.557Z,99493.00
2023-03-11T07:36:49.442Z,99503.00
2023-03-11T07:39:19.114Z,99501.00
2023-03-11T07:41:47.941Z,99502.60
2023-03-11T07:44:18.200Z,99508.80
2023-03-11T07:46:47.278Z,99519.60
2023-03-11T07:49:16.540Z,99528.20
2023-03-11T07:51:45.198Z,99534.00
2023-03-11T07:54:14.153Z,99537.00
2023-03-11T07:56:42.931Z,99545.00
2023-03-11T07:59:11.512Z,99547.60
2023-03-11T08:01:41.540Z,99551.40
2023-03-11T08:04:14.493Z,99563.00
2023-03-11T08:06:47.165Z,99565.20
2023-03-11T08:09:15.796Z,99575.60
2023-03-11T08:11:44.365Z,99579.80
2023-03-11T08:14:13.360Z,99581.80
2023-03-11T08:16:42.768Z,99585.80
2023-03-11T08:19:13.684Z,99591.20
2023-03-11T08:21:42.196Z,99594.20
2023-03-11T08:24:13.838Z,99600.20
2023-03-11T08:26:42.975Z,99610.20
2023-03-11T08:29:11.628Z,99615.80
2023-03-11T08:31:40.317Z,99624.40
2023-03-11T08:34:11.373Z,99638.60
2023-03-11T08:36:40.143Z,99647.40
2023-03-11T08:39:09.702Z,99655.00
2023-03-11T08:41:38.364Z,99655.40
2023-03-11T08:44:07.176Z,99663.60
2023-03-11T08:46:38.833Z,99662.80
2023-03-11T08:49:07.688Z,99666.60
2023-03-11T08:51:38.200Z,99667.60
2023-03-11T08:54:07.405Z,99670.20
2023-03-11T08:56:36.501Z,99681.00
2023-03-11T08:59:05.082Z,99689.80
2023-03-11T09:01:33.785Z,99692.40
2023-03-11T09:04:02.464Z,99695.00
2023-03-11T09:06:31.141Z,99706.60
2023-03-11T09:09:00.119Z,99704.00
2023-03-11T09:11:28.923Z,99706.00
2023-03-11T09:13:57.407Z,99703.20
2023-03-11T09:16:26.037Z,99707.40
2023-03-11T09:18:54.985Z,99712.40
2023-03-11T09:21:23.572Z,99723.20
2023-03-11T09:23:52.257Z,99724.00
2023-03-11T09:26:21.934Z,99736.20
2023-03-11T09:28:50.589Z,99740.20
2023-03-11T09:31:19.898Z,99744.20
2023-03-11T09:33:50.215Z,99759.20
2023-03-11T09:36:22.049Z,99761.00
2023-03-11T09:38:50.832Z,99762.40
2023-03-11T09:42:01.297Z,99762.60
2023-03-11T09:44:42.272Z,99762.60
2023-03-11T09:48:01.648Z,99765.00
2023-03-11T09:50:51.659Z,99771.60
2023-03-11T09:53:44.800Z,99777.20
2023-03-11T09:56:24.467Z,99779.60
2023-03-11T09:59:00.804Z,99786.80
2023-03-11T10:01:56.867Z,99799.60
2023-03-11T10:04:39.245Z,99803.60
2023-03-11T10:07:22.365Z,99816.80
2023-03-11T10:09:55.151Z,99827.60
2023-03-11T10:12:57.628Z,99833.20
2023-03-11T10:15:55.498Z,99822.20
2023-03-11T10:18:26.553Z,99834.20
2023-03-11T10:21:04.035Z,99824.00
2023-03-11T10:23:57.297Z,99831.60
2023-03-11T10:26:45.613Z,99829.00
2023-03-11T10:29:28.243Z,99834.00
2023-03-11T10:32:16.438Z,99839.40
2023-03-11T10:35:16.743Z,99838.20
2023-03-11T10:38:00.983Z,99839.20
2023-03-11T10:40:38.701Z,99839.60
2023-03-11T10:43:19.283Z,99845.40
2023-03-11T10:45:51.314Z,99846.40
2023-03-11T10:48:22.509Z,99855.80
2023-03-11T10:51:26.963Z,99858.60
2023-03-11T10:54:01.468Z,99875.80
2023-03-11T10:56:40.402Z,99876.40
2023-03-11T10:59:34.642Z,99876.40
2023-03-11T11:02:21.650Z,99881.80
2023-03-11T11:05:06.200Z,99887.40
2023-03-11T11:07:41.294Z,99893.20
2023-03-11T11:10:12.705Z,99902.20
2023-03-11T11:12:59.707Z,99901.80
2023-03-11T11:15:42.729Z,99899.00
2023-03-11T11:18:54.755Z,99902.60
2023-03-11T11:21:43.654Z,99904.60
2023-03-11T11:24:29.687Z,99907.80
2023-03-11T11:27:22.027Z,99908.80
2023-03-11T11:30:09.043Z,99909.60
2023-03-11T11:32:38.868Z,99910.80
2023-03-11T11:35:13.643Z,99919.80
2023-03-11T11:38:02.704Z,99918.60
2023-03-11T11:40:33.956Z,99923.80
2023-03-11T11:43:14.315Z,99925.80
2023-03-11T11:46:06.035Z,99925.20
2023-03-11T11:49:07.450Z,99932.60
2023-03-11T11:51:43.116Z,99946.40
2023-03-11T11:54:25.290Z,99949.40
2023-03-11T11:56:57.145Z,99952.00
2023-03-11T11:59:25.893Z,99960.60
2023-03-11T12:02:16.648Z,99957.20
2023-03-11T12:05:11.071Z,99964.80
2023-03-11T12:08:01.443Z,99967.40
2023-03-11T12:10:50.189Z,99974.40
2023-03-11T12:13:30.856Z,99975.60
2023-03-11T12:16:13.397Z,99980.20
2023-03-11T12:18:50.860Z,99983.80
2023-03-11T12:21:43.512Z,99983.00
2023-03-11T12:24:52.762Z,99985.60
2023-03-11T12:27:37.301Z,99989.00
2023-03-11T12:30:19.403Z,99991.20
2023-03-11T12:32:58.330Z,99996.00
2023-03-11T12:35:31.197Z,99999.00
2023-03-11T12:38:41.685Z,100001.60
2023-03-11T12:41:16.205Z,100002.20
2023-03-11T12:43:44.791Z,99997.20
2023-03-11T12:46:19.279Z,99994.60
2023-03-11T12:49:14.424Z,99992.20
2023-03-11T12:52:03.384Z,99995.60
2023-03-11T12:54:42.532Z,100003.20
2023-03-11T12:57:17.231Z,100007.00
2023-03-11T12:59:54.738Z,100010.80
2023-03-11T13:03:06.849Z,100014.80
2023-03-11T13:06:20.487Z,100026.80
2023-03-11T13:08:54.976Z,100026.20
2023-03-11T13:11:32.503Z,100023.40
2023-03-11T13:14:32.220Z,100031.00
2023-03-11T13:17:32.784Z,100030.60
2023-03-11T13:20:01.447Z,100034.80
2023-03-11T13:22:53.271Z,100035.40
2023-03-11T13:25:33.023Z,100033.20
2023-03-11T13:28:31.728Z,100038.40
2023-03-11T13:31:38.631Z,100039.40
2023-03-11T13:34:07.175Z,100045.60
2023-03-11T13:36:51.835Z,100048.40
2023-03-11T13:40:00.772Z,100057.40
2023-03-11T13:42:46.582Z,100066.80
2023-03-11T13:45:35.377Z,100075.60
2023-03-11T13:48:32.572Z,100082.40
2023-03-11T13:51:14.077Z,100091.20
2023-03-11T13:54:11.067Z,100087.00
2023-03-11T13:56:54.442Z,100090.80
2023-03-11T13:59:33.135Z,100094.00
2023-03-11T14:02:19.377Z,100088.00
2023-03-11T14:05:07.346Z,100090.20
2023-03-11T14:07:37.866Z,100088.40
2023-03-11T14:10:27.921Z,100088.80
2023-03-11T14:13:17.284Z,100095.40
2023-03-11T14:15:55.500Z,100101.40
2023-03-11T14:18:46.812Z,100108.40
2023-03-11T14:21:23.093Z,100108.40
2023-03-11T14:23:54.853Z,100111.00
2023-03-11T14:26:24.138Z,100118.80
2023-03-11T14:28:59.960Z,100115.00
2023-03-11T14:31:37.607Z,100118.00
2023-03-11T14:34:33.615Z,100117.20
2023-03-11T14:37:04.296Z,100121.80
2023-03-11T14:39:34.818Z,100120.20
2023-03-11T14:42:21.996Z,100124.00
2023-03-11T14:45:12.392Z,100114.80
2023-03-11T14:48:10.881Z,100115.20
2023-03-11T14:50:39.666Z,100121.80
2023-03-11T14:53:36.109Z,100129.40
2023-03-11T14:56:21.994Z,100133.80
2023-03-11T14:59:32.571Z,100134.40
2023-03-11T15:02:22.447Z,100141.20
2023-03-11T15:04:52.291Z,100144.40
2023-03-11T15:07:21.359Z,100150.40
2023-03-11T15:09:50.009Z,100152.80
2023-03-11T15:12:50.166Z,100150.40
2023-03-11T15:15:28.913Z,100161.20
2023-03-11T15:18:02.056Z,100160.00
2023-03-11T15:20:37.806Z,100167.00
2023-03-11T15:23:07.972Z,100165.60
2023-03-11T15:25:41.048Z,100170.60
2023-03-11T15:28:39.154Z,100180.00
2023-03-11T15:31:22.971Z,100182.80
2023-03-11T15:33:52.063Z,100188.40
2023-03-11T15:36:39.898Z,100187.40
2023-03-11T15:39:11.247Z,100188.20
2023-03-11T15:41:47.104Z,100188.40
2023-03-11T15:44:25.725Z,100198.00
2023-03-11T15:46:54.549Z,100202.40
2023-03-11T15:49:23.098Z,100207.40
2023-03-11T15:51:52.097Z,100205.00
2023-03-11T15:54:21.904Z,100212.40
2023-03-11T15:56:50.693Z,100214.60
2023-03-11T15:59:19.479Z,100219.40
2023-03-11T16:01:47.962Z,100223.20
2023-03-11T16:04:20.640Z,100224.80
2023-03-11T16:06:59.606Z,100225.80
2023-03-11T16:09:35.626Z,100228.20
2023-03-11T16:12:36.272Z,100236.00
2023-03-11T16:15:07.344Z,100234.00
2023-03-11T16:17:48.986Z,100241.00
2023-03-11T16:20:21.566Z,100246.40
2023-03-11T16:22:54.772Z,100255.20
2023-03-11T16:25:30.924Z,100262.00
2023-03-11T16:27:59.943Z,100266.00
2023-03-11T16:30:31.462Z,100270.60
2023-03-11T16:33:01.596Z,100272.00
2023-03-11T16:35:33.212Z,100280.00
2023-03-11T16:38:02.534Z,100282.40
2023-03-11T16:40:31.210Z,100292.60
2023-03-11T16:43:07.458Z,100295.00
2023-03-11T16:45:36.576Z,100298.80
2023-03-11T16:48:06.172Z,100307.60
2023-03-11T16:50:37.328Z,100307.60
2023-03-11T16:53:06.357Z,100318.00
2023-03-11T16:55:35.040Z,100320.60
2023-03-11T16:58:03.623Z,100324.20
2023-03-11T17:00:32.214Z,100328.40
2023-03-11T17:03:01.110Z,100339.40
2023-03-11T17:05:30.433Z,100348.00
2023-03-11T17:08:04.634Z,100348.40
2023-03-11T17:10:40.342Z,100351.00
2023-03-11T17:13:09.787Z,100355.60
2023-03-11T17:15:39.490Z,100362.00
2023-03-11T17:18:08.326Z,100369.40
2023-03-11T17:20:40.791Z,100369.20
2023-03-11T17:23:09.955Z,100376.80
2023-03-11T17:25:42.064Z,100385.20
2023-03-11T17:28:11.118Z,100383.20
2023-03-11T17:30:46.050Z,100395.00
2023-03-11T17:33:14.532Z,100397.40
2023-03-11T17:35:43.463Z,100402.00
2023-03-11T17:38:12.012Z,100406.80
2023-03-11T17:40:40.712Z,100409.60
2023-03-11T17:43:09.383Z,100416.60
2023-03-11T17:45:39.958Z,100420.20
2023-03-11T17:48:08.603Z,100423.40
2023-03-11T17:50:39.187Z,100431.00
2023-03-11T17:53:07.925Z,100435.40
2023-03-11T17:55:40.782Z,100442.20
2023-03-11T17:58:10.209Z,100445.00
2023-03-11T18:00:39.205Z,100448.00
2023-03-11T18:03:07.781Z,100447.40
2023-03-11T18:05:38.022Z,100444.40
2023-03-11T18:08:06.691Z,100446.60
2023-03-11T18:10:35.478Z,100452.00
2023-03-11T18:13:04.577Z,100454.00
2023-03-11T18:15:33.675Z,100456.60
2023-03-11T18:18:02.461Z,100457.00
2023-03-11T18:20:31.260Z,100459.40
2023-03-11T18:22:59.930Z,100466.40
2023-03-11T18:25:28.928Z,100471.60
2023-03-11T18:27:57.936Z,100474.20
2023-03-11T18:30:26.712Z,100476.40
2023-03-11T18:32:55.686Z,100479.60
2023-03-11T18:35:25.211Z,100483.00
2023-03-11T18:37:54.113Z,100478.20
2023-03-11T18:40:23.611Z,100481.40
2023-03-11T18:42:53.427Z,100473.20
2023-03-11T18:45:22.323Z,100479.80
2023-03-11T18:47:51.833Z,100479.40
2023-03-11T18:50:21.946Z,100483.60
2023-03-11T18:52:52.222Z,100476.40
2023-03-11T18:55:20.952Z,100480.80
2023-03-11T18:57:49.543Z,100483.40
2023-03-11T19:00:22.662Z,100478.20
2023-03-11T19:02:54.424Z,100476.40
2023-03-11T19:05:23.188Z,100470.60
2023-03-11T19:07:51.966Z,100470.00
2023-03-11T19:10:21.170Z,100476.80
2023-03-11T19:12:50.169Z,100477.60
2023-03-11T19:15:18.761Z,100479.60
2023-03-11T19:17:57.417Z,100484.60
2023-03-11T19:20:33.814Z,100492.20
2023-03-11T19:23:04.188Z,100493.40
2023-03-11T19:25:36.027Z,100499.60
2023-03-11T19:28:06.730Z,100490.80
2023-03-11T19:30:38.081Z,100494.00
2023-03-11T19:33:09.075Z,100497.20
2023-03-11T19:35:37.754Z,100501.80
2023-03-11T19:38:06.938Z,100498.40
2023-03-11T19:40:36.134Z,100507.60
2023-03-11T19:43:06.157Z,100503.20
2023-03-11T19:45:35.765Z,100505.60
2023-03-11T19:48:05.745Z,100508.60
2023-03-11T19:50:36.264Z,100505.20
2023-03-11T19:53:07.105Z,100515.20
2023-03-11T19:55:36.959Z,100511.20
2023-03-11T19:58:07.376Z,100513.00
2023-03-11T20:00:39.923Z,100504.20
2023-03-11T20:03:11.554Z,100501.20
2023-03-11T20:05:43.560Z,100506.80
2023-03-11T20:08:16.184Z,100504.60
2023-03-11T20:10:48.873Z,100501.20
2023-03-11T20:13:23.127Z,100502.60
2023-03-11T20:15:52.204Z,100506.40
2023-03-11T20:18:21.154Z,100508.40
2023-03-11T20:20:50.450Z,100511.20
2023-03-11T20:23:20.025Z,100509.40
2023-03-11T20:25:50.752Z,100512.60
2023-03-11T20:28:20.304Z,100517.60
2023-03-11T20:30:49.348Z,100515.60
2023-03-11T20:33:19.229Z,100514.80
2023-03-11T20:35:50.252Z,100508.40
2023-03-11T20:38:20.771Z,100509.20
2023-03-11T20:40:57.458Z,100508.80
2023-03-11T20:43:28.217Z,100505.60
2023-03-11T20:46:00.267Z,100504.60
2023-03-11T20:48:32.738Z,100504.00
2023-03-11T20:51:07.308Z,100503.40
2023-03-11T20:53:38.291Z,100498.20
2023-03-11T20:56:16.141Z,100511.60
2023-03-11T20:58:46.427Z,100510.40
2023-03-11T21:01:19.562Z,100511.20
2023-03-11T21:03:51.234Z,100511.00
2023-03-11T21:06:28.483Z,100512.00
2023-03-11T21:09:02.450Z,100515.00
2023-03-11T21:11:33.607Z,100513.00
2023-03-11T21:14:04.671Z,100519.40
2023-03-11T21:16:33.929Z,100515.80
2023-03-11T21:19:09.136Z,100516.00
2023-03-11T21:21:39.724Z,100512.80
2023-03-11T21:24:09.233Z,100520.20
2023-03-11T21:26:38.456Z,100515.40
2023-03-11T21:29:07.390Z,100519.60
2023-03-11T21:31:36.283Z,100513.20
2023-03-11T21:34:05.769Z,100513.20
2023-03-11T21:36:34.579Z,100516.40
2023-03-11T21:39:04.052Z,100520.20
2023-03-11T21:41:32.749Z,100520.40
2023-03-11T21:44:01.531Z,100516.20
2023-03-11T21:46:32.642Z,100517.40
2023-03-11T21:49:01.634Z,100516.80
2023-03-11T21:51:31.418Z,100519.00
2023-03-11T21:54:00.054Z,100517.60
2023-03-11T21:56:28.912Z,100512.40
2023-03-11T21:58:58.011Z,100511.20
2023-03-11T22:01:26.933Z,100508.20
2023-03-11T22:03:56.805Z,100508.80
2023-03-11T22:06:25.758Z,100502.60
2023-03-11T22:08:54.414Z,100504.40
2023-03-11T22:11:23.205Z,100505.00
2023-03-11T22:13:54.530Z,100502.00
2023-03-11T22:16:25.156Z,100502.60
2023-03-11T22:18:54.261Z,100502.40
2023-03-11T22:21:23.271Z,100504.20
2023-03-11T22:23:51.951Z,100505.20
2023-03-11T22:26:20.835Z,100509.20
2023-03-11T22:28:49.750Z,100507.40
2023-03-11T22:31:19.355Z,100506.40
2023-03-11T22:33:48.362Z,100501.00
2023-03-11T22:36:17.335Z,100501.40
2023-03-11T22:38:46.252Z,100506.80
2023-03-11T22:41:19.521Z,100507.00
2023-03-11T22:43:48.534Z,100505.60
2023-03-11T22:46:17.540Z,100503.60
2023-03-11T22:48:46.410Z,100508.00
2023-03-11T22:51:15.422Z,100511.00
2023-03-11T22:53:44.332Z,100506.20
2023-03-11T22:56:16.888Z,100511.40
2023-03-11T22:58:46.273Z,100508.60
2023-03-11T23:01:15.177Z,100508.40
2023-03-11T23:03:45.102Z,100510.20
2023-03-11T23:06:18.337Z,100508.40
2023-03-11T23:08:48.154Z,100511.20
2023-03-11T23:11:21.402Z,100510.60
2023-03-11T23:13:51.217Z,100510.20
2023-03-11T23:16:22.397Z,100511.60
2023-03-11T23:18:54.524Z,100509.00
2023-03-11T23:21:31.624Z,100511.20
2023-03-11T23:24:03.143Z,100509.00
2023-03-11T23:26:35.981Z,100506.80
2023-03-11T23:29:05.637Z,100507.40
2023-03-11T23:31:36.683Z,100508.00
2023-03-11T23:34:07.142Z,100506.20
2023-03-11T23:36:36.468Z,100510.20
2023-03-11T23:39:05.657Z,100503.00
2023-03-11T23:41:34.594Z,100505.80
2023-03-11T23:44:04.209Z,100510.20
2023-03-11T23:46:33.470Z,100512.60
2023-03-11T23:49:02.786Z,100512.00
2023-03-11T23:51:31.956Z,100512.60
2023-03-11T23:54:00.996Z,100515.60
2023-03-11T23:56:31.647Z,100515.20
2023-03-11T23:59:01.096Z,100512.40
